Time;durP1;ratioP1;P1;durP2;ratioP2;P2;SDS_P1;SDS_P2;PMS_P1;PMS_P2;Temp;Humidity;BMP_temperature;BMP_pressure;BME280_temperature;BME280_humidity;BME280_pressure;Samples;Min_cycle;Max_cycle;Signal;HPM_P1;HPM_P2
2022/03/08 00:00:25;;;;;;;13.07;11.77;;;0.60;99.90;;;;;;5029228;28;20247;-67
2022/03/08 00:02:51;;;;;;;12.07;11.03;;;0.60;99.90;;;;;;5032765;28;20234;-66
2022/03/08 00:05:17;;;;;;;11.97;10.70;;;0.60;99.90;;;;;;5032797;28;20188;-66
2022/03/08 00:07:45;;;;;;;12.40;11.30;;;0.60;99.90;;;;;;5032663;28;20195;-67
2022/03/08 00:10:11;;;;;;;12.37;11.27;;;0.60;99.90;;;;;;5021417;28;20180;-66
2022/03/08 00:12:36;;;;;;;11.57;10.57;;;0.60;99.90;;;;;;5013914;28;20230;-66
2022/03/08 00:15:08;;;;;;;13.37;12.17;;;0.60;99.90;;;;;;5014013;28;20199;-67
2022/03/08 00:17:34;;;;;;;12.40;11.17;;;0.60;99.90;;;;;;5014053;28;20259;-66
2022/03/08 00:19:59;;;;;;;11.03;10.13;;;0.60;99.90;;;;;;5021654;28;20298;-67
2022/03/08 00:22:25;;;;;;;11.63;10.53;;;0.50;99.90;;;;;;5033253;28;20192;-67
2022/03/08 00:24:51;;;;;;;10.97;9.97;;;0.60;99.90;;;;;;5016757;28;20242;-66
2022/03/08 00:27:16;;;;;;;12.17;11.17;;;0.60;99.90;;;;;;5012352;28;20238;-66
2022/03/08 00:29:42;;;;;;;11.70;10.70;;;0.60;99.90;;;;;;5014577;28;20208;-66
2022/03/08 00:32:08;;;;;;;12.20;11.20;;;0.50;99.90;;;;;;5013135;28;20278;-66
2022/03/08 00:34:34;;;;;;;12.90;11.70;;;0.60;99.90;;;;;;5025072;28;20791;-66
2022/03/08 00:37:00;;;;;;;12.80;11.80;;;0.50;99.90;;;;;;5033154;28;20176;-67
2022/03/08 00:39:26;;;;;;;13.13;12.00;;;0.50;99.90;;;;;;5030294;28;20199;-67
2022/03/08 00:41:51;;;;;;;13.67;12.23;;;0.60;99.90;;;;;;5031262;28;20747;-67
2022/03/08 00:44:17;;;;;;;14.27;13.13;;;0.60;99.90;;;;;;5022785;28;20180;-67
2022/03/08 00:46:42;;;;;;;14.50;13.50;;;0.60;99.90;;;;;;5013181;28;20183;-67
2022/03/08 00:49:08;;;;;;;14.27;13.07;;;0.60;99.90;;;;;;5012848;28;20613;-67
2022/03/08 00:51:34;;;;;;;15.13;13.97;;;0.60;99.90;;;;;;5013141;28;20243;-66
2022/03/08 00:53:59;;;;;;;13.83;12.83;;;0.60;99.90;;;;;;5016597;28;20270;-66
2022/03/08 00:56:25;;;;;;;14.87;13.87;;;0.60;99.90;;;;;;5032971;28;20172;-67
2022/03/08 00:58:52;;;;;;;14.13;13.07;;;0.60;99.90;;;;;;5028007;28;20179;-66
2022/03/08 01:01:17;;;;;;;13.03;12.13;;;0.60;99.90;;;;;;5012951;28;20560;-67
2022/03/08 01:03:43;;;;;;;13.47;12.27;;;0.60;99.90;;;;;;5013820;28;20168;-67
2022/03/08 01:06:08;;;;;;;12.97;11.93;;;0.60;99.90;;;;;;5011669;28;20176;-67
2022/03/08 01:08:34;;;;;;;12.23;11.33;;;0.60;99.90;;;;;;5012990;28;20180;-67
2022/03/08 01:11:00;;;;;;;13.03;11.93;;;0.60;99.90;;;;;;5032444;28;20234;-67
2022/03/08 01:13:26;;;;;;;11.97;10.97;;;0.60;99.90;;;;;;5030955;28;20557;-66
2022/03/08 01:15:51;;;;;;;11.13;10.30;;;0.60;99.90;;;;;;5013711;28;20189;-66
2022/03/08 01:18:17;;;;;;;11.70;10.57;;;0.60;99.90;;;;;;5011450;28;20634;-66
2022/03/08 01:20:42;;;;;;;11.87;10.67;;;0.60;99.90;;;;;;5027466;28;20369;-67
2022/03/08 01:23:08;;;;;;;12.30;11.20;;;0.60;99.90;;;;;;5032010;28;20648;-66
2022/03/08 01:25:34;;;;;;;11.67;10.73;;;0.60;99.90;;;;;;5016444;28;20184;-66
2022/03/08 01:27:59;;;;;;;12.47;11.27;;;0.50;99.90;;;;;;5012509;28;20264;-66
2022/03/08 01:30:25;;;;;;;11.63;10.73;;;0.50;99.90;;;;;;5012324;28;20278;-66
2022/03/08 01:32:51;;;;;;;12.73;11.47;;;0.50;99.90;;;;;;5012316;28;20176;-66
2022/03/08 01:35:18;;;;;;;12.87;11.37;;;0.50;99.90;;;;;;5023623;28;20674;-66
2022/03/08 01:37:44;;;;;;;11.90;11.00;;;0.50;99.90;;;;;;5030960;28;20211;-67
2022/03/08 01:40:14;;;;;;;12.07;10.90;;;0.50;99.90;;;;;;5020598;28;20211;-67
2022/03/08 01:42:48;;;;;;;11.83;10.93;;;0.50;99.90;;;;;;5012016;28;20172;-67
2022/03/08 01:45:16;;;;;;;12.47;11.47;;;0.40;99.90;;;;;;5014677;28;20605;-67
2022/03/08 01:47:42;;;;;;;11.77;10.87;;;0.40;99.90;;;;;;5031922;28;20749;-67
2022/03/08 01:50:09;;;;;;;12.70;11.50;;;0.40;99.90;;;;;;5021110;28;20271;-66
2022/03/08 01:52:35;;;;;;;13.10;12.00;;;0.30;99.90;;;;;;5010344;28;20223;-67
2022/03/08 01:55:00;;;;;;;12.50;11.70;;;0.30;99.90;;;;;;5013852;28;20267;-67
2022/03/08 01:57:26;;;;;;;11.37;10.43;;;0.30;99.90;;;;;;5019212;28;20215;-67
2022/03/08 01:59:53;;;;;;;11.23;10.43;;;0.20;99.90;;;;;;5012139;28;20559;-66
2022/03/08 02:02:20;;;;;;;11.10;10.30;;;0.20;99.90;;;;;;5011589;28;20199;-67
2022/03/08 02:04:46;;;;;;;11.50;10.63;;;0.20;99.90;;;;;;5013191;28;20218;-67
2022/03/08 02:07:12;;;;;;;11.60;10.37;;;0.20;99.90;;;;;;5012268;28;20641;-67
2022/03/08 02:09:38;;;;;;;11.57;10.67;;;0.20;99.90;;;;;;4996776;28;20238;-67
2022/03/08 02:12:05;;;;;;;11.50;10.43;;;0.20;99.90;;;;;;5031399;28;20195;-67
2022/03/08 02:14:30;;;;;;;11.40;10.40;;;0.30;99.90;;;;;;5029356;28;20229;-67
2022/03/08 02:16:57;;;;;;;11.83;9.33;;;0.30;99.90;;;;;;5030980;28;20210;-66
2022/03/08 02:19:22;;;;;;;11.33;10.43;;;0.40;99.90;;;;;;5021908;28;20385;-67
2022/03/08 02:21:50;;;;;;;12.77;11.63;;;0.40;99.90;;;;;;5010501;28;20665;-67
2022/03/08 02:24:16;;;;;;;12.57;11.47;;;0.40;99.90;;;;;;5019051;28;20274;-67
2022/03/08 02:26:42;;;;;;;12.43;11.33;;;0.40;99.90;;;;;;5030360;28;20186;-67
2022/03/08 02:29:08;;;;;;;11.80;10.80;;;0.50;99.90;;;;;;5028488;28;20637;-67
2022/03/08 02:31:35;;;;;;;12.70;11.43;;;0.40;99.90;;;;;;5031538;28;20195;-66
2022/03/08 02:34:01;;;;;;;11.73;10.77;;;0.40;99.90;;;;;;5026266;28;20634;-67
2022/03/08 02:36:27;;;;;;;12.30;10.13;;;0.40;99.90;;;;;;5010461;28;20272;-67
2022/03/08 02:38:52;;;;;;;10.70;9.67;;;0.30;99.90;;;;;;5013309;28;20603;-67
2022/03/08 02:41:18;;;;;;;10.67;9.77;;;0.30;99.90;;;;;;5029915;28;20218;-67
2022/03/08 02:43:44;;;;;;;11.30;10.20;;;0.30;99.90;;;;;;5028218;28;20187;-67
2022/03/08 02:46:10;;;;;;;11.30;9.83;;;0.30;99.90;;;;;;5030091;28;20188;-66
2022/03/08 02:48:36;;;;;;;11.53;10.53;;;0.20;99.90;;;;;;5028201;28;20600;-66
2022/03/08 02:51:03;;;;;;;10.37;9.57;;;0.30;99.90;;;;;;5029826;28;20215;-67
2022/03/08 02:53:29;;;;;;;10.97;9.97;;;0.30;99.90;;;;;;5025912;28;20184;-67
2022/03/08 02:55:55;;;;;;;10.73;9.83;;;0.30;99.90;;;;;;5028333;28;20180;-67
2022/03/08 02:58:20;;;;;;;10.90;10.00;;;0.30;99.90;;;;;;5029500;28;20223;-66
2022/03/08 03:00:46;;;;;;;10.83;10.03;;;0.30;99.90;;;;;;5011413;28;20674;-66
2022/03/08 03:03:12;;;;;;;10.57;9.73;;;0.30;99.90;;;;;;5018089;28;20197;-67
2022/03/08 03:05:38;;;;;;;11.43;9.63;;;0.30;99.90;;;;;;5032036;28;20183;-66
2022/03/08 03:08:05;;;;;;;9.33;8.63;;;0.30;99.90;;;;;;5028258;28;20685;-66
2022/03/08 03:10:31;;;;;;;10.43;9.50;;;0.30;99.90;;;;;;5015069;28;20200;-67
2022/03/08 03:12:58;;;;;;;10.33;9.43;;;0.30;99.90;;;;;;5026784;28;20194;-66
2022/03/08 03:15:25;;;;;;;9.47;8.83;;;0.40;99.90;;;;;;5034969;28;20172;-66
2022/03/08 03:17:51;;;;;;;10.10;9.30;;;0.40;99.90;;;;;;5031794;28;20180;-67
2022/03/08 03:20:20;;;;;;;10.30;9.50;;;0.50;99.90;;;;;;5034418;28;20211;-67
2022/03/08 03:22:46;;;;;;;10.13;9.40;;;0.50;99.90;;;;;;5023430;28;20271;-66
2022/03/08 03:25:14;;;;;;;10.33;9.50;;;0.50;99.90;;;;;;5013438;28;20184;-67
2022/03/08 03:27:40;;;;;;;10.43;9.53;;;0.40;99.90;;;;;;5015967;28;20625;-67
2022/03/08 03:30:09;;;;;;;9.87;9.17;;;0.50;99.90;;;;;;5013371;28;20187;-67
2022/03/08 03:32:36;;;;;;;11.67;10.53;;;0.50;99.90;;;;;;5004804;28;20241;-66
2022/03/08 03:35:02;;;;;;;9.70;9.03;;;0.50;99.90;;;;;;5022744;28;20184;-67
2022/03/08 03:37:28;;;;;;;9.90;9.03;;;0.50;99.90;;;;;;5034480;28;20186;-67
2022/03/08 03:39:53;;;;;;;10.70;9.77;;;0.50;99.90;;;;;;5033183;28;20211;-66
2022/03/08 03:42:19;;;;;;;9.70;8.90;;;0.50;99.90;;;;;;5032365;28;20206;-66
2022/03/08 03:44:45;;;;;;;9.77;8.97;;;0.50;99.90;;;;;;5034362;28;20551;-66
2022/03/08 03:47:11;;;;;;;10.87;9.97;;;0.60;99.90;;;;;;5015115;28;20250;-65
2022/03/08 03:49:37;;;;;;;10.07;9.37;;;0.60;99.90;;;;;;5013426;28;20605;-65
2022/03/08 03:52:03;;;;;;;10.73;9.70;;;0.70;99.90;;;;;;5029006;28;20223;-66
2022/03/08 03:54:29;;;;;;;9.10;8.50;;;0.70;99.90;;;;;;5033991;28;20250;-66
2022/03/08 03:56:55;;;;;;;10.40;9.40;;;0.70;99.90;;;;;;5032310;28;20659;-66
2022/03/08 03:59:20;;;;;;;10.33;9.63;;;0.70;99.90;;;;;;5022050;28;20215;-66
2022/03/08 04:01:46;;;;;;;10.07;9.33;;;0.70;99.90;;;;;;5014140;28;20192;-66
2022/03/08 04:04:12;;;;;;;9.73;9.13;;;0.70;99.90;;;;;;5032405;28;20187;-66
2022/03/08 04:06:37;;;;;;;10.10;9.40;;;0.70;99.90;;;;;;5034061;28;20178;-66
2022/03/08 04:09:05;;;;;;;10.40;9.70;;;0.70;99.90;;;;;;5016386;28;20704;-66
2022/03/08 04:11:31;;;;;;;11.17;10.27;;;0.70;99.90;;;;;;5014017;28;20254;-66
2022/03/08 04:13:57;;;;;;;10.10;9.30;;;0.60;99.90;;;;;;5014723;28;20638;-66
2022/03/08 04:16:23;;;;;;;11.30;10.30;;;0.60;99.90;;;;;;5012931;28;20169;-66
2022/03/08 04:18:49;;;;;;;11.67;10.50;;;0.60;99.90;;;;;;5026359;28;20179;-66
2022/03/08 04:21:14;;;;;;;11.00;10.17;;;0.50;99.90;;;;;;5033476;28;20203;-66
2022/03/08 04:23:40;;;;;;;12.17;11.10;;;0.40;99.90;;;;;;5030408;28;20274;-66
2022/03/08 04:26:05;;;;;;;10.37;9.47;;;0.40;99.90;;;;;;5033582;28;20167;-66
2022/03/08 04:28:31;;;;;;;10.63;9.83;;;0.30;99.90;;;;;;5022817;28;20516;-66
2022/03/08 04:30:57;;;;;;;10.50;9.50;;;0.30;99.90;;;;;;5018815;28;20199;-66
2022/03/08 04:33:22;;;;;;;10.17;9.37;;;0.30;99.90;;;;;;5032886;28;20178;-66
2022/03/08 04:35:48;;;;;;;10.67;9.87;;;0.30;99.90;;;;;;5028430;28;20184;-66
2022/03/08 04:38:14;;;;;;;10.20;9.30;;;0.30;99.90;;;;;;5014188;28;20259;-66
2022/03/08 04:40:39;;;;;;;11.57;10.43;;;0.30;99.90;;;;;;5013382;28;20210;-66
2022/03/08 04:43:05;;;;;;;11.43;10.33;;;0.20;99.90;;;;;;5013660;28;20246;-66
2022/03/08 04:45:31;;;;;;;11.53;10.53;;;0.20;99.90;;;;;;5033425;28;20764;-66
2022/03/08 04:47:56;;;;;;;11.20;10.10;;;0.30;99.90;;;;;;5032525;28;20179;-66
2022/03/08 04:50:22;;;;;;;10.60;9.70;;;0.30;99.90;;;;;;5031699;28;20179;-66
2022/03/08 04:52:49;;;;;;;12.23;10.83;;;0.20;99.90;;;;;;5031495;28;20572;-66
2022/03/08 04:55:17;;;;;;;11.13;10.03;;;0.30;99.90;;;;;;5012441;28;20599;-66
2022/03/08 04:57:43;;;;;;;11.50;10.40;;;0.30;99.90;;;;;;5012107;28;20255;-66
2022/03/08 05:00:11;;;;;;;12.53;10.57;;;0.20;99.90;;;;;;5013936;28;20204;-66
2022/03/08 05:02:38;;;;;;;11.20;10.23;;;0.20;99.90;;;;;;5012600;28;20179;-66
2022/03/08 05:05:06;;;;;;;11.00;10.07;;;0.20;99.90;;;;;;5028788;28;20184;-66
2022/03/08 05:07:32;;;;;;;11.30;10.33;;;0.10;99.90;;;;;;5031645;28;20180;-67
2022/03/08 05:09:57;;;;;;;10.90;10.00;;;0.10;99.90;;;;;;5018062;28;20231;-66
2022/03/08 05:12:23;;;;;;;13.23;10.67;;;0.10;99.90;;;;;;5012332;28;20267;-66
2022/03/08 05:14:48;;;;;;;11.13;10.07;;;0.10;99.90;;;;;;5012546;28;20180;-66
2022/03/08 05:17:14;;;;;;;11.20;10.17;;;0.10;99.90;;;;;;5012798;28;20692;-66
2022/03/08 05:19:40;;;;;;;13.30;10.93;;;0.10;99.90;;;;;;5022652;28;20209;-66
2022/03/08 05:22:05;;;;;;;11.00;10.13;;;0.10;99.90;;;;;;5032416;28;20229;-66
2022/03/08 05:24:31;;;;;;;11.17;10.20;;;0.20;99.90;;;;;;5022694;28;20177;-66
2022/03/08 05:26:56;;;;;;;10.63;9.77;;;0.20;99.90;;;;;;5012443;28;20179;-66
2022/03/08 05:29:22;;;;;;;10.47;9.67;;;0.20;99.90;;;;;;5012253;28;20657;-66
2022/03/08 05:31:48;;;;;;;11.07;10.20;;;0.20;99.90;;;;;;5016326;28;20207;-66
2022/03/08 05:34:14;;;;;;;11.60;10.70;;;0.20;99.90;;;;;;5031852;28;20172;-66
2022/03/08 05:36:40;;;;;;;10.47;9.77;;;0.20;99.90;;;;;;5029829;28;20587;-66
2022/03/08 05:39:06;;;;;;;11.10;10.00;;;0.20;99.90;;;;;;5032084;28;20620;-66
2022/03/08 05:41:32;;;;;;;11.20;10.07;;;0.20;99.90;;;;;;5029650;28;20207;-66
2022/03/08 05:43:58;;;;;;;11.37;10.33;;;0.10;99.90;;;;;;5010829;28;20172;-66
2022/03/08 05:46:23;;;;;;;11.23;10.13;;;0.10;99.90;;;;;;5012149;28;20175;-66
2022/03/08 05:48:49;;;;;;;10.93;10.10;;;0.20;99.90;;;;;;5012075;28;20176;-66
2022/03/08 05:51:15;;;;;;;10.77;9.87;;;0.20;99.90;;;;;;5023108;28;20219;-66
2022/03/08 05:53:40;;;;;;;12.17;11.17;;;0.10;99.90;;;;;;5044663;28;20214;-67
2022/03/08 05:56:07;;;;;;;11.00;10.17;;;0.20;99.90;;;;;;5026413;28;20271;-66
2022/03/08 05:58:32;;;;;;;11.17;10.17;;;0.20;99.90;;;;;;5013370;28;20399;-66
2022/03/08 06:00:58;;;;;;;11.53;10.73;;;0.10;99.90;;;;;;5011901;28;20239;-66
2022/03/08 06:03:24;;;;;;;11.07;10.00;;;0.10;99.90;;;;;;5016127;28;20274;-66
2022/03/08 06:05:50;;;;;;;12.20;10.83;;;0.10;99.90;;;;;;5031884;28;20171;-66
2022/03/08 06:08:15;;;;;;;11.43;10.43;;;0.10;99.90;;;;;;5026147;28;20196;-66
2022/03/08 06:10:41;;;;;;;11.70;9.87;;;0.10;99.90;;;;;;5011903;28;20314;-66
2022/03/08 06:13:06;;;;;;;11.00;10.20;;;0.20;99.90;;;;;;5012469;28;20192;-66
2022/03/08 06:15:32;;;;;;;10.60;9.73;;;0.20;99.90;;;;;;5010722;28;20176;-66
2022/03/08 06:17:57;;;;;;;10.90;10.10;;;0.30;99.90;;;;;;5011222;28;20660;-66
2022/03/08 06:20:23;;;;;;;10.90;10.10;;;0.30;99.90;;;;;;5030026;28;20238;-66
2022/03/08 06:22:49;;;;;;;11.20;10.33;;;0.30;99.90;;;;;;5029826;28;20203;-66
2022/03/08 06:25:14;;;;;;;11.03;10.13;;;0.40;99.90;;;;;;5031369;28;20226;-66
2022/03/08 06:27:40;;;;;;;11.57;10.40;;;0.40;99.90;;;;;;5030286;28;20176;-66
2022/03/08 06:30:07;;;;;;;10.33;9.63;;;0.50;99.90;;;;;;5012029;28;20238;-66
2022/03/08 06:32:32;;;;;;;10.73;9.90;;;0.50;99.90;;;;;;5011254;28;20196;-66
2022/03/08 06:34:58;;;;;;;11.07;10.17;;;0.50;99.90;;;;;;5029097;28;20519;-66
2022/03/08 06:37:23;;;;;;;10.83;9.90;;;0.60;99.90;;;;;;5025889;28;20188;-66
2022/03/08 06:39:49;;;;;;;11.33;10.40;;;0.60;99.90;;;;;;5012593;28;20199;-66
2022/03/08 06:42:16;;;;;;;10.50;9.60;;;0.70;99.90;;;;;;5008785;28;20622;-66
2022/03/08 06:44:42;;;;;;;10.97;10.07;;;0.70;99.90;;;;;;5017525;28;20649;-66
2022/03/08 06:47:09;;;;;;;10.67;9.60;;;0.80;99.90;;;;;;5032041;28;20183;-66
2022/03/08 06:49:37;;;;;;;10.83;9.93;;;0.90;99.90;;;;;;5033801;28;20273;-66
2022/03/08 06:52:03;;;;;;;10.87;10.03;;;0.90;99.90;;;;;;5023384;28;20218;-66
2022/03/08 06:54:29;;;;;;;12.03;11.00;;;1.00;99.90;;;;;;5013873;28;20641;-67
2022/03/08 06:56:54;;;;;;;9.97;9.17;;;1.10;99.90;;;;;;5015055;28;20180;-66
2022/03/08 06:59:20;;;;;;;11.03;10.13;;;1.10;99.90;;;;;;5013546;28;20254;-66
2022/03/08 07:01:46;;;;;;;11.40;10.40;;;1.20;99.90;;;;;;5020982;28;20202;-66
2022/03/08 07:04:12;;;;;;;11.23;10.27;;;1.30;99.90;;;;;;5034419;28;20625;-66
2022/03/08 07:06:39;;;;;;;11.73;10.63;;;1.40;99.90;;;;;;5032987;28;20638;-66
2022/03/08 07:09:04;;;;;;;12.13;11.10;;;1.40;99.90;;;;;;5033326;28;20266;-66
2022/03/08 07:11:31;;;;;;;12.47;9.93;;;1.50;99.90;;;;;;5030689;28;20285;-66
2022/03/08 07:13:57;;;;;;;10.00;9.10;;;1.80;99.90;;;;;;5015856;28;20173;-66
2022/03/08 07:16:23;;;;;;;10.57;9.67;;;2.20;99.90;;;;;;5015625;28;20175;-66
2022/03/08 07:18:48;;;;;;;11.20;10.27;;;2.70;99.90;;;;;;5015566;28;20172;-66
2022/03/08 07:21:14;;;;;;;10.57;9.73;;;3.10;99.90;;;;;;5026813;28;20269;-66
2022/03/08 07:23:40;;;;;;;10.43;9.33;;;3.50;99.90;;;;;;5031814;28;20168;-66
2022/03/08 07:26:06;;;;;;;9.10;8.30;;;3.80;99.90;;;;;;5026541;28;20172;-66
2022/03/08 07:28:32;;;;;;;9.53;8.73;;;4.20;99.90;;;;;;5031192;28;20179;-66
2022/03/08 07:30:58;;;;;;;9.00;8.13;;;4.40;99.90;;;;;;5014407;28;20657;-66
2022/03/08 07:33:24;;;;;;;10.03;9.13;;;4.60;99.90;;;;;;5014260;28;20180;-66
2022/03/08 07:35:49;;;;;;;9.33;8.53;;;4.70;99.90;;;;;;5014246;28;20740;-66
2022/03/08 07:38:16;;;;;;;10.77;9.87;;;4.80;98.80;;;;;;5014308;28;20172;-66
2022/03/08 07:40:42;;;;;;;9.30;8.50;;;4.80;98.60;;;;;;5031955;28;20242;-66
2022/03/08 07:43:08;;;;;;;9.40;8.50;;;4.90;97.70;;;;;;5034076;28;20178;-66
2022/03/08 07:45:35;;;;;;;9.13;8.40;;;5.00;98.30;;;;;;5016441;28;20180;-66
2022/03/08 07:48:01;;;;;;;9.03;8.13;;;5.10;97.80;;;;;;5015253;28;20164;-66
2022/03/08 07:50:27;;;;;;;9.50;8.57;;;5.10;97.50;;;;;;5028095;28;20179;-66
2022/03/08 07:52:53;;;;;;;9.77;8.97;;;5.30;96.80;;;;;;5006520;28;20197;-66
2022/03/08 07:55:18;;;;;;;9.87;9.07;;;5.30;96.80;;;;;;4995138;28;20176;-66
2022/03/08 07:57:44;;;;;;;9.83;8.83;;;5.40;95.60;;;;;;5013914;28;20211;-66
2022/03/08 08:00:10;;;;;;;9.00;8.30;;;5.30;95.90;;;;;;5013544;28;20696;-66
2022/03/08 08:02:37;;;;;;;9.40;8.50;;;5.60;95.80;;;;;;5015235;28;20263;-66
2022/03/08 08:05:03;;;;;;;9.60;8.80;;;5.90;95.80;;;;;;5014014;28;20168;-66
2022/03/08 08:07:29;;;;;;;9.93;8.97;;;6.10;95.00;;;;;;5024113;28;20175;-66
2022/03/08 08:09:55;;;;;;;10.07;9.27;;;6.20;94.70;;;;;;5033800;28;20655;-66
2022/03/08 08:12:21;;;;;;;10.77;9.77;;;6.10;93.70;;;;;;5022797;28;20203;-66
2022/03/08 08:14:47;;;;;;;9.80;9.10;;;6.00;93.90;;;;;;5013599;28;20200;-66
2022/03/08 08:17:12;;;;;;;11.97;10.47;;;6.10;94.10;;;;;;5013292;28;20234;-66
2022/03/08 08:19:38;;;;;;;11.03;10.03;;;6.30;94.00;;;;;;5013806;28;20204;-67
2022/03/08 08:22:04;;;;;;;9.93;9.13;;;6.50;93.50;;;;;;5020460;28;20689;-66
2022/03/08 08:24:29;;;;;;;9.20;8.50;;;6.60;92.90;;;;;;5033150;28;20179;-66
2022/03/08 08:26:55;;;;;;;10.30;9.33;;;6.60;92.30;;;;;;5030306;28;20179;-66
2022/03/08 08:29:21;;;;;;;9.97;8.57;;;6.70;92.20;;;;;;5021934;28;20275;-66
2022/03/08 08:31:46;;;;;;;9.70;8.33;;;6.80;92.30;;;;;;5023320;28;20195;-66
2022/03/08 08:34:12;;;;;;;8.77;7.90;;;7.00;92.50;;;;;;5030268;28;20206;-66
2022/03/08 08:36:37;;;;;;;8.90;8.07;;;7.30;92.40;;;;;;5032720;28;20178;-66
2022/03/08 08:39:03;;;;;;;8.20;7.50;;;7.60;91.50;;;;;;5032923;28;20270;-66
2022/03/08 08:41:29;;;;;;;8.43;7.80;;;7.70;91.70;;;;;;5032872;28;20257;-66
2022/03/08 08:43:54;;;;;;;8.80;8.00;;;8.10;91.10;;;;;;5034507;28;20175;-67
2022/03/08 08:46:20;;;;;;;9.00;8.20;;;8.00;90.00;;;;;;5045843;28;20172;-67
2022/03/08 08:48:46;;;;;;;8.50;7.80;;;8.20;90.20;;;;;;5047059;28;20167;-66
2022/03/08 08:51:11;;;;;;;9.50;8.70;;;8.40;90.40;;;;;;5035495;28;20434;-66
2022/03/08 08:53:37;;;;;;;10.97;8.90;;;8.60;89.10;;;;;;5032708;28;20237;-66
2022/03/08 08:56:03;;;;;;;8.60;7.90;;;8.60;86.60;;;;;;5032683;28;20203;-66
2022/03/08 08:58:28;;;;;;;7.70;7.17;;;8.60;88.00;;;;;;5032766;28;20244;-66
2022/03/08 09:00:54;;;;;;;8.87;8.07;;;8.60;85.60;;;;;;5031079;28;20211;-66
2022/03/08 09:03:19;;;;;;;8.07;7.47;;;8.80;86.30;;;;;;5010617;28;20250;-66
2022/03/08 09:05:46;;;;;;;8.77;7.93;;;8.70;85.30;;;;;;5012832;28;20543;-66
2022/03/08 09:08:14;;;;;;;8.40;7.70;;;8.90;86.40;;;;;;5012663;28;20532;-66
2022/03/08 09:10:40;;;;;;;8.53;7.83;;;9.20;87.20;;;;;;5011340;28;20211;-66
2022/03/08 09:13:06;;;;;;;8.43;7.73;;;9.40;85.00;;;;;;5010970;28;20179;-66
2022/03/08 09:15:33;;;;;;;8.33;7.63;;;9.40;83.50;;;;;;5013029;28;20172;-66
2022/03/08 09:17:59;;;;;;;8.87;8.03;;;9.50;82.10;;;;;;5012580;28;20168;-66
2022/03/08 09:20:26;;;;;;;7.50;7.00;;;9.60;82.60;;;;;;5012330;28;20199;-66
2022/03/08 09:22:54;;;;;;;8.10;7.43;;;9.40;82.30;;;;;;5012213;28;20263;-66
2022/03/08 09:25:20;;;;;;;9.00;8.13;;;9.40;80.30;;;;;;5011158;28;20176;-67
2022/03/08 09:27:46;;;;;;;8.00;7.40;;;9.50;81.00;;;;;;5012632;28;20716;-66
2022/03/08 09:30:12;;;;;;;8.10;7.50;;;9.90;81.90;;;;;;5010951;28;20187;-66
2022/03/08 09:32:38;;;;;;;7.77;7.17;;;9.90;77.30;;;;;;5010100;28;20590;-66
2022/03/08 09:35:05;;;;;;;8.10;7.30;;;10.00;78.50;;;;;;5012195;28;20218;-66
2022/03/08 09:37:30;;;;;;;8.67;7.97;;;10.20;77.80;;;;;;5011143;28;20287;-66
2022/03/08 09:39:56;;;;;;;7.43;6.80;;;10.20;74.70;;;;;;5010864;28;20240;-66
2022/03/08 09:42:23;;;;;;;7.70;7.03;;;10.20;77.30;;;;;;5011768;28;20224;-66
2022/03/08 09:44:48;;;;;;;7.50;6.93;;;10.40;75.90;;;;;;5012293;28;20520;-66
2022/03/08 09:47:15;;;;;;;7.20;6.70;;;10.60;75.60;;;;;;5011418;28;20551;-67
2022/03/08 09:49:42;;;;;;;10.37;7.07;;;10.70;72.90;;;;;;5011002;28;20192;-66
2022/03/08 09:52:07;;;;;;;7.70;7.10;;;10.70;73.80;;;;;;5012273;28;20650;-66
2022/03/08 09:54:33;;;;;;;7.43;6.83;;;10.90;73.40;;;;;;5010716;28;20180;-66
2022/03/08 09:56:59;;;;;;;8.47;6.70;;;11.00;74.00;;;;;;5011974;28;20279;-66
2022/03/08 09:59:29;;;;;;;7.67;7.17;;;10.90;70.90;;;;;;5011779;28;20207;-66
2022/03/08 10:01:55;;;;;;;7.60;6.40;;;10.70;70.40;;;;;;5010602;28;20207;-66
2022/03/08 10:04:21;;;;;;;7.30;6.63;;;10.70;69.50;;;;;;5010142;28;20602;-66
2022/03/08 10:06:51;;;;;;;7.60;6.80;;;10.50;69.30;;;;;;5010765;28;20203;-66
2022/03/08 10:09:19;;;;;;;7.30;6.60;;;10.40;69.50;;;;;;5010339;28;20176;-66
2022/03/08 10:11:49;;;;;;;14.30;6.70;;;10.40;68.40;;;;;;5010652;28;20230;-66
2022/03/08 10:14:39;;;;;;;8.50;7.30;;;10.50;69.40;;;;;;5009562;28;20178;-66
2022/03/08 10:17:07;;;;;;;7.90;7.30;;;10.40;67.10;;;;;;5010411;28;20577;-66
2022/03/08 10:19:45;;;;;;;7.20;6.67;;;10.70;69.50;;;;;;5011698;28;20274;-66
2022/03/08 10:22:31;;;;;;;7.20;6.60;;;10.90;67.90;;;;;;5011359;28;20553;-66
2022/03/08 10:25:18;;;;;;;7.23;6.73;;;11.00;66.60;;;;;;5011760;28;20218;-66
2022/03/08 10:27:56;;;;;;;7.63;7.03;;;11.00;66.90;;;;;;5011587;28;20187;-66
2022/03/08 10:30:41;;;;;;;8.23;7.30;;;10.90;65.80;;;;;;5011470;28;20192;-66
2022/03/08 10:33:07;;;;;;;7.07;6.57;;;10.60;64.30;;;;;;5010016;28;20214;-66
2022/03/08 10:35:37;;;;;;;7.30;6.80;;;10.40;64.50;;;;;;5009712;28;20208;-66
2022/03/08 10:38:08;;;;;;;6.87;6.37;;;10.30;65.10;;;;;;5011727;28;20696;-66
2022/03/08 10:40:35;;;;;;;7.43;6.80;;;10.50;67.20;;;;;;5010319;28;20243;-66
2022/03/08 10:43:05;;;;;;;7.33;6.80;;;10.70;68.50;;;;;;5011183;28;20177;-66
2022/03/08 10:45:34;;;;;;;7.20;6.70;;;11.10;67.40;;;;;;5011489;28;20179;-66
2022/03/08 10:48:00;;;;;;;9.20;7.03;;;11.30;65.20;;;;;;5010703;28;20615;-66
2022/03/08 10:50:29;;;;;;;7.33;6.67;;;11.30;63.90;;;;;;5011083;28;20196;-66
2022/03/08 10:52:57;;;;;;;8.23;6.67;;;11.10;63.10;;;;;;5013463;28;20642;-66
2022/03/08 10:55:26;;;;;;;6.87;6.43;;;11.00;63.90;;;;;;5017192;28;20176;-66
2022/03/08 10:57:54;;;;;;;7.20;6.70;;;10.80;63.00;;;;;;4992527;28;20272;-66
2022/03/08 11:00:23;;;;;;;7.17;6.57;;;11.00;65.30;;;;;;4991745;28;20794;-66
2022/03/08 11:02:51;;;;;;;6.97;6.40;;;11.20;65.90;;;;;;4991621;28;20212;-66
2022/03/08 11:05:19;;;;;;;6.50;6.10;;;11.30;63.30;;;;;;5006627;28;20634;-67
2022/03/08 11:07:46;;;;;;;8.53;7.23;;;11.50;63.60;;;;;;5010664;28;20172;-66
2022/03/08 11:10:12;;;;;;;6.93;6.33;;;11.50;64.80;;;;;;5011137;28;20670;-66
2022/03/08 11:12:38;;;;;;;7.07;6.47;;;11.60;63.90;;;;;;5009763;28;20187;-66
2022/03/08 11:15:06;;;;;;;7.63;6.73;;;11.40;62.40;;;;;;5023318;28;20215;-66
2022/03/08 11:17:37;;;;;;;7.37;6.77;;;11.60;64.70;;;;;;5024209;28;20180;-67
2022/03/08 11:20:06;;;;;;;6.87;6.37;;;12.10;65.90;;;;;;5030961;28;20798;-67
2022/03/08 11:22:32;;;;;;;6.90;6.27;;;12.60;64.50;;;;;;5024398;28;20211;-67
2022/03/08 11:24:58;;;;;;;7.63;7.03;;;12.80;63.30;;;;;;5010951;28;20176;-67
2022/03/08 11:27:25;;;;;;;7.33;6.73;;;12.70;61.30;;;;;;5014253;28;20570;-67
2022/03/08 11:29:51;;;;;;;7.43;6.83;;;12.30;61.20;;;;;;5017562;28;20184;-66
2022/03/08 11:32:22;;;;;;;8.40;7.03;;;12.30;61.50;;;;;;5032953;28;20199;-67
2022/03/08 11:34:56;;;;;;;7.63;7.03;;;12.40;63.00;;;;;;5031902;28;20168;-66
2022/03/08 11:37:25;;;;;;;7.87;6.80;;;12.60;62.70;;;;;;5014547;28;20215;-67
2022/03/08 11:40:06;;;;;;;7.47;6.87;;;12.50;61.50;;;;;;5015796;28;20573;-66
2022/03/08 11:42:34;;;;;;;7.40;6.90;;;12.40;59.90;;;;;;5014502;28;20196;-66
2022/03/08 11:45:04;;;;;;;7.40;6.80;;;12.40;61.30;;;;;;5016566;28;20291;-66
2022/03/08 11:47:40;;;;;;;7.37;6.77;;;12.50;60.60;;;;;;5033176;28;20257;-66
2022/03/08 11:50:17;;;;;;;7.27;6.73;;;12.60;60.90;;;;;;5047749;28;20175;-66
2022/03/08 11:52:42;;;;;;;7.27;6.77;;;12.80;61.70;;;;;;5054466;28;20179;-66
2022/03/08 11:55:13;;;;;;;8.20;7.50;;;13.00;59.80;;;;;;5051789;28;20180;-66
2022/03/08 11:57:48;;;;;;;7.87;7.27;;;13.10;59.50;;;;;;5033969;28;20176;-66
2022/03/08 12:00:36;;;;;;;7.13;6.63;;;13.00;59.60;;;;;;5016587;28;20196;-66
2022/03/08 12:03:14;;;;;;;10.90;7.30;;;12.90;58.90;;;;;;5014173;28;20164;-66
2022/03/08 12:05:41;;;;;;;7.73;7.13;;;12.90;59.40;;;;;;5019956;28;20167;-66
2022/03/08 12:08:24;;;;;;;8.03;7.43;;;13.00;59.20;;;;;;5032521;28;20178;-66
2022/03/08 12:10:58;;;;;;;8.27;7.57;;;12.70;58.70;;;;;;5025793;28;20704;-66
2022/03/08 12:13:28;;;;;;;9.13;7.03;;;12.70;59.20;;;;;;5012344;28;20180;-66
2022/03/08 12:16:09;;;;;;;8.07;7.47;;;12.80;60.40;;;;;;5020842;28;20214;-67
2022/03/08 12:18:39;;;;;;;8.13;7.53;;;13.00;58.60;;;;;;5031050;28;20183;-66
2022/03/08 12:21:25;;;;;;;10.47;7.60;;;13.20;59.60;;;;;;5012126;28;20212;-67
2022/03/08 12:23:58;;;;;;;7.30;6.80;;;13.30;61.10;;;;;;5004332;28;20275;-67
2022/03/08 12:26:26;;;;;;;7.57;6.93;;;13.30;58.90;;;;;;5013610;28;20187;-67
2022/03/08 12:29:15;;;;;;;8.10;7.37;;;13.50;59.40;;;;;;5016130;28;20164;-66
2022/03/08 12:31:59;;;;;;;8.03;7.43;;;13.50;58.50;;;;;;5033544;28;20199;-67
2022/03/08 12:34:45;;;;;;;7.97;7.47;;;13.20;58.80;;;;;;5030437;28;20274;-67
2022/03/08 12:37:20;;;;;;;8.13;7.30;;;13.40;59.70;;;;;;5032708;28;20179;-66
2022/03/08 12:40:07;;;;;;;7.60;7.10;;;13.70;59.00;;;;;;5020535;28;20191;-67
2022/03/08 12:42:42;;;;;;;7.63;7.03;;;13.70;57.80;;;;;;5011761;28;20196;-67
2022/03/08 12:45:19;;;;;;;8.07;7.37;;;13.40;57.50;;;;;;5027761;28;20194;-67